createdAt,value
2022-08-14T00:01:10.352Z,52.02
2022-08-14T00:03:40.778Z,52.00
2022-08-14T00:06:25.940Z,52.53
2022-08-14T00:08:58.984Z,52.48
2022-08-14T00:11:28.656Z,52.64
2022-08-14T00:13:55.799Z,52.53
2022-08-14T00:16:41.665Z,52.69
2022-08-14T00:19:19.519Z,52.95
2022-08-14T00:21:50.899Z,53.08
2022-08-14T00:24:28.139Z,53.04
2022-08-14T00:27:02.019Z,53.24
2022-08-14T00:29:33.195Z,53.45
2022-08-14T00:32:52.858Z,54.08
2022-08-14T00:34:56.362Z,54.22
2022-08-14T00:37:23.407Z,54.51
2022-08-14T00:39:50.981Z,54.58
2022-08-14T00:42:52.837Z,54.69
2022-08-14T00:45:12.311Z,55.46
2022-08-14T00:47:47.415Z,55.92
2022-08-14T00:50:19.913Z,55.75
2022-08-14T00:52:53.018Z,56.05
2022-08-14T00:55:20.896Z,56.09
2022-08-14T00:58:08.954Z,56.61
2022-08-14T01:00:47.611Z,56.63
2022-08-14T01:03:27.660Z,56.45
2022-08-14T01:05:59.106Z,56.23
2022-08-14T01:08:51.253Z,56.65
2022-08-14T01:11:19.143Z,56.76
2022-08-14T01:13:56.217Z,56.88
2022-08-14T01:16:31.297Z,56.88
2022-08-14T01:19:17.215Z,57.03
2022-08-14T01:21:53.275Z,57.32
2022-08-14T01:24:24.754Z,57.23
2022-08-14T01:27:00.626Z,57.43
2022-08-14T01:30:03.081Z,57.26
2022-08-14T01:32:23.244Z,57.19
2022-08-14T01:35:19.130Z,57.03
2022-08-14T01:37:56.481Z,56.87
2022-08-14T01:40:36.414Z,57.15
2022-08-14T01:43:18.688Z,57.72
2022-08-14T01:45:57.710Z,58.07
2022-08-14T01:48:33.961Z,58.47
2022-08-14T01:51:19.211Z,58.73
2022-08-14T01:53:54.757Z,58.85
2022-08-14T01:56:37.174Z,58.97
2022-08-14T01:59:24.006Z,59.57
2022-08-14T02:01:58.480Z,59.26
2022-08-14T02:04:56.026Z,59.64
2022-08-14T02:07:27.289Z,59.67
2022-08-14T02:10:01.433Z,59.91
2022-08-14T02:12:29.410Z,59.65
2022-08-14T02:15:00.475Z,59.48
2022-08-14T02:17:30.657Z,59.59
2022-08-14T02:19:57.773Z,59.48
2022-08-14T02:22:32.418Z,59.63
2022-08-14T02:25:00.791Z,59.50
2022-08-14T02:28:24.819Z,59.25
2022-08-14T02:30:16.433Z,59.19
2022-08-14T02:32:43.585Z,59.53
2022-08-14T02:35:18.569Z,59.56
2022-08-14T02:37:50.580Z,59.44
2022-08-14T02:40:32.293Z,60.05
2022-08-14T02:43:02.501Z,60.67
2022-08-14T02:45:38.747Z,60.72
2022-08-14T02:49:02.629Z,60.47
2022-08-14T02:51:07.115Z,61.14
2022-08-14T02:53:37.452Z,61.12
2022-08-14T02:56:04.635Z,61.75
2022-08-14T02:58:51.883Z,61.68
2022-08-14T03:01:26.255Z,61.36
2022-08-14T03:03:58.146Z,61.01
2022-08-14T03:06:48.785Z,60.96
2022-08-14T03:09:12.719Z,61.10
2022-08-14T03:11:39.721Z,61.19
2022-08-14T03:14:12.546Z,60.95
2022-08-14T03:16:43.465Z,60.94
2022-08-14T03:19:09.991Z,61.00
2022-08-14T03:21:40.715Z,61.48
2022-08-14T03:24:21.657Z,61.88
2022-08-14T03:26:57.409Z,61.84
2022-08-14T03:29:26.466Z,62.28
2022-08-14T03:31:53.722Z,61.87
2022-08-14T03:34:24.708Z,61.72
2022-08-14T03:37:39.107Z,62.05
2022-08-14T03:39:57.179Z,62.10
2022-08-14T03:42:25.088Z,62.35
2022-08-14T03:45:20.234Z,62.44
2022-08-14T03:47:56.018Z,62.50
2022-08-14T03:50:31.482Z,62.27
2022-08-14T03:53:01.548Z,62.34
2022-08-14T03:55:30.248Z,62.18
2022-08-14T03:57:58.307Z,62.24
2022-08-14T04:00:42.855Z,62.51
2022-08-14T04:03:18.021Z,62.59
2022-08-14T04:05:48.444Z,62.42
2022-08-14T04:08:23.134Z,63.04
2022-08-14T04:11:01.031Z,63.28
2022-08-14T04:13:31.813Z,63.28
2022-08-14T04:16:12.761Z,63.70
2022-08-14T04:18:43.323Z,63.76
2022-08-14T04:21:12.713Z,64.32
2022-08-14T04:23:40.707Z,64.53
2022-08-14T04:26:15.038Z,64.89
2022-08-14T04:29:08.758Z,64.83
2022-08-14T04:33:00.980Z,64.97
2022-08-14T04:34:29.166Z,64.80
2022-08-14T04:37:21.894Z,64.52
2022-08-14T04:40:08.695Z,64.17
2022-08-14T04:42:54.595Z,64.05
2022-08-14T04:45:24.002Z,63.94
2022-08-14T04:48:12.755Z,63.57
2022-08-14T04:50:53.799Z,63.51
2022-08-14T04:53:26.240Z,63.77
2022-08-14T04:56:02.410Z,63.98
2022-08-14T04:58:33.767Z,63.52
2022-08-14T05:01:05.298Z,63.88
2022-08-14T05:03:39.800Z,63.78
2022-08-14T05:06:35.015Z,64.17
2022-08-14T05:09:00.113Z,64.70
2022-08-14T05:11:27.727Z,64.40
2022-08-14T05:14:16.650Z,64.46
2022-08-14T05:16:44.068Z,64.57
2022-08-14T05:19:18.891Z,64.33
2022-08-14T05:22:15.663Z,64.76
2022-08-14T05:24:48.421Z,64.72
2022-08-14T05:27:22.982Z,64.82
2022-08-14T05:29:53.851Z,64.87
2022-08-14T05:32:23.591Z,64.48
2022-08-14T05:34:58.051Z,64.71
2022-08-14T05:37:26.490Z,65.00
2022-08-14T05:39:53.249Z,64.95
2022-08-14T05:42:22.427Z,64.82
2022-08-14T05:44:55.759Z,64.74
2022-08-14T05:47:24.014Z,65.18
2022-08-14T05:49:51.495Z,64.98
2022-08-14T05:52:38.343Z,65.03
2022-08-14T05:55:09.279Z,64.75
2022-08-14T05:58:00.520Z,65.49
2022-08-14T06:00:37.151Z,64.96
2022-08-14T06:03:09.748Z,64.74
2022-08-14T06:05:38.870Z,65.21
2022-08-14T06:08:33.377Z,65.17
2022-08-14T06:11:06.059Z,64.95
2022-08-14T06:13:41.119Z,64.79
2022-08-14T06:16:12.487Z,64.91
2022-08-14T06:18:39.679Z,64.84
2022-08-14T06:21:06.558Z,64.68
2022-08-14T06:23:40.143Z,65.20
2022-08-14T06:26:06.902Z,65.36
2022-08-14T06:28:33.451Z,65.41
2022-08-14T06:31:00.892Z,65.06
2022-08-14T06:33:30.312Z,64.95
2022-08-14T06:36:18.865Z,66.30
2022-08-14T06:38:46.482Z,64.45
2022-08-14T06:41:20.780Z,64.38
2022-08-14T06:44:03.354Z,64.05
2022-08-14T06:46:32.579Z,63.96
2022-08-14T06:49:03.468Z,63.65
2022-08-14T06:51:44.482Z,63.26
2022-08-14T06:54:12.580Z,63.14
2022-08-14T06:56:40.282Z,63.14
2022-08-14T06:59:19.686Z,62.88
2022-08-14T07:02:05.776Z,62.32
2022-08-14T07:04:58.558Z,61.95
2022-08-14T07:07:25.187Z,61.76
2022-08-14T07:09:55.402Z,61.52
2022-08-14T07:12:54.892Z,61.13
2022-08-14T07:15:09.534Z,61.03
2022-08-14T07:17:46.077Z,60.91
2022-08-14T07:20:13.882Z,60.75
2022-08-14T07:22:56.510Z,60.38
2022-08-14T07:25:32.242Z,59.93
2022-08-14T07:28:00.646Z,59.74
2022-08-14T07:30:33.882Z,59.58
2022-08-14T07:33:02.580Z,59.34
2022-08-14T07:35:30.357Z,58.96
2022-08-14T07:38:18.971Z,58.67
2022-08-14T07:40:48.328Z,58.46
2022-08-14T07:43:21.348Z,58.14
2022-08-14T07:45:50.700Z,58.27
2022-08-14T07:48:17.829Z,58.25
2022-08-14T07:50:47.291Z,57.86
2022-08-14T07:53:14.546Z,57.46
2022-08-14T07:55:42.844Z,57.56
2022-08-14T07:58:34.292Z,57.51
2022-08-14T08:00:56.987Z,57.09
2022-08-14T08:03:27.979Z,57.02
2022-08-14T08:05:54.975Z,56.81
2022-08-14T08:08:27.319Z,56.88
2022-08-14T08:11:02.823Z,56.46
2022-08-14T08:13:34.567Z,56.46
2022-08-14T08:16:08.123Z,56.25
2022-08-14T08:18:36.202Z,56.03
2022-08-14T08:21:02.905Z,55.92
2022-08-14T08:23:40.779Z,55.61
2022-08-14T08:26:10.330Z,55.01
2022-08-14T08:28:36.998Z,54.70
2022-08-14T08:31:06.793Z,54.48
2022-08-14T08:33:37.079Z,53.98
2022-08-14T08:36:12.973Z,53.51
2022-08-14T08:39:17.445Z,53.51
2022-08-14T08:41:49.446Z,53.27
2022-08-14T08:44:32.804Z,53.55
2022-08-14T08:47:05.978Z,52.79
2022-08-14T08:49:59.508Z,52.45
2022-08-14T08:52:31.613Z,52.44
2022-08-14T08:55:00.718Z,52.31
2022-08-14T08:57:36.926Z,51.20
2022-08-14T09:00:25.836Z,51.94
2022-08-14T09:03:04.574Z,51.55
2022-08-14T09:05:33.392Z,51.34
2022-08-14T09:08:33.437Z,50.79
2022-08-14T09:11:19.443Z,50.13
2022-08-14T09:13:51.474Z,50.77
2022-08-14T09:16:25.317Z,49.70
2022-08-14T09:18:54.030Z,49.50
2022-08-14T09:21:24.267Z,49.47
2022-08-14T09:24:29.478Z,49.05
2022-08-14T09:26:49.408Z,49.18
2022-08-14T09:29:17.618Z,48.67
2022-08-14T09:31:55.930Z,48.00
2022-08-14T09:34:59.284Z,47.47
2022-08-14T09:37:44.271Z,47.61
2022-08-14T09:40:44.628Z,47.76
2022-08-14T09:43:33.595Z,46.48
2022-08-14T09:46:02.751Z,46.70
2022-08-14T09:48:30.837Z,46.09
2022-08-14T09:54:19.555Z,44.85
2022-08-14T09:56:31.773Z,45.73
2022-08-14T09:59:15.096Z,44.70
2022-08-14T10:01:44.032Z,45.18
2022-08-14T10:04:34.396Z,43.99
2022-08-14T10:07:06.082Z,43.88
2022-08-14T10:09:46.032Z,43.54
2022-08-14T10:12:54.897Z,43.20
2022-08-14T10:15:30.021Z,43.22
2022-08-14T10:18:08.018Z,41.89
2022-08-14T10:20:44.964Z,42.30
2022-08-14T10:23:18.903Z,41.86
2022-08-14T10:25:53.271Z,41.62
2022-08-14T10:28:39.237Z,41.53
2022-08-14T10:31:25.442Z,40.79
2022-08-14T10:34:13.113Z,39.43
2022-08-14T10:36:47.662Z,40.53
2022-08-14T10:39:26.165Z,39.49
2022-08-14T10:42:16.411Z,39.79
2022-08-14T10:44:49.066Z,39.14
2022-08-14T10:47:40.744Z,39.40
2022-08-14T10:50:07.613Z,39.52
2022-08-14T10:52:38.078Z,39.72
2022-08-14T10:55:19.357Z,39.28
2022-08-14T10:57:56.889Z,39.33
2022-08-14T11:00:30.249Z,39.19
2022-08-14T11:03:26.463Z,39.47
2022-08-14T11:05:55.846Z,39.55
2022-08-14T11:08:33.879Z,39.36
2022-08-14T11:11:05.332Z,39.00
2022-08-14T11:13:32.676Z,38.92
2022-08-14T11:16:01.942Z,38.35
2022-08-14T11:18:35.837Z,37.82
2022-08-14T11:21:07.015Z,37.71
2022-08-14T11:23:41.257Z,37.20
2022-08-14T11:26:12.069Z,37.30
2022-08-14T11:28:47.032Z,36.51
2022-08-14T11:31:23.257Z,36.77
2022-08-14T11:33:57.663Z,36.66
2022-08-14T11:36:56.997Z,37.18
2022-08-14T11:39:34.588Z,37.44
2022-08-14T11:42:57.687Z,37.70
2022-08-14T11:45:03.249Z,37.53
2022-08-14T11:47:35.219Z,37.29
2022-08-14T11:50:14.612Z,37.75
2022-08-14T11:53:04.367Z,37.81
2022-08-14T11:55:39.736Z,37.80
2022-08-14T11:58:23.898Z,37.06
2022-08-14T12:00:58.783Z,37.13
2022-08-14T12:03:52.259Z,36.50
2022-08-14T12:06:29.593Z,37.17
2022-08-14T12:09:08.726Z,37.32
2022-08-14T12:11:47.140Z,37.70
2022-08-14T12:14:31.129Z,37.53
2022-08-14T12:17:12.598Z,37.12
2022-08-14T12:20:03.450Z,37.12
2022-08-14T12:22:52.345Z,37.06
2022-08-14T12:25:24.573Z,37.66
2022-08-14T12:27:59.323Z,37.51
2022-08-14T12:30:43.445Z,37.35
2022-08-14T12:33:33.437Z,37.03
2022-08-14T12:36:06.133Z,36.83
2022-08-14T12:38:41.191Z,36.66
2022-08-14T12:41:22.033Z,36.27
2022-08-14T12:44:03.791Z,36.29
2022-08-14T12:46:43.370Z,36.57
2022-08-14T12:49:17.091Z,36.56
2022-08-14T12:51:57.453Z,36.64
2022-08-14T12:54:28.372Z,36.18
2022-08-14T12:57:19.902Z,35.11
2022-08-14T12:59:49.208Z,35.64
2022-08-14T13:02:25.266Z,35.47
2022-08-14T13:04:55.717Z,36.38
2022-08-14T13:07:24.152Z,35.84
2022-08-14T13:09:56.012Z,36.16
2022-08-14T13:12:31.371Z,36.24
2022-08-14T13:15:08.955Z,36.01
2022-08-14T13:17:51.216Z,35.74
2022-08-14T13:20:23.143Z,35.26
2022-08-14T13:22:52.243Z,35.67
2022-08-14T13:25:25.815Z,35.61
2022-08-14T13:27:57.557Z,35.35
2022-08-14T13:30:27.017Z,35.46
2022-08-14T13:32:58.404Z,35.54
2022-08-14T13:35:26.123Z,35.71
2022-08-14T13:37:54.086Z,36.01
2022-08-14T13:40:26.468Z,35.69
2022-08-14T13:42:55.496Z,35.54
2022-08-14T13:45:32.624Z,35.12
2022-08-14T13:48:00.272Z,34.56
2022-08-14T13:50:27.064Z,34.19
2022-08-14T13:52:58.212Z,34.61
2022-08-14T13:55:30.457Z,34.50
2022-08-14T13:58:03.233Z,34.52
2022-08-14T14:00:51.742Z,34.44
2022-08-14T14:03:25.306Z,34.05
2022-08-14T14:05:57.850Z,33.96
2022-08-14T14:08:45.907Z,33.99
2022-08-14T14:11:15.923Z,34.45
2022-08-14T14:13:45.134Z,34.62
2022-08-14T14:16:14.911Z,34.67
2022-08-14T14:18:48.907Z,34.17
2022-08-14T14:21:21.838Z,34.68
2022-08-14T14:23:49.107Z,34.93
2022-08-14T14:26:23.057Z,34.65
2022-08-14T14:28:56.761Z,34.51
2022-08-14T14:31:31.080Z,34.03
2022-08-14T14:34:07.741Z,33.97
2022-08-14T14:36:52.545Z,33.97
2022-08-14T14:39:29.105Z,33.79
2022-08-14T14:41:59.639Z,34.18
2022-08-14T14:44:42.369Z,33.27
2022-08-14T14:47:17.552Z,33.71
2022-08-14T14:49:54.542Z,32.82
2022-08-14T14:52:27.619Z,33.02
2022-08-14T14:54:59.202Z,33.02
2022-08-14T14:57:35.901Z,32.17
2022-08-14T15:00:19.370Z,32.11
2022-08-14T15:02:51.525Z,32.32
2022-08-14T15:05:20.479Z,32.75
2022-08-14T15:07:51.078Z,32.46
2022-08-14T15:10:26.936Z,32.37
2022-08-14T15:13:00.030Z,31.81
2022-08-14T15:15:27.326Z,30.96
2022-08-14T15:17:54.747Z,31.35
2022-08-14T15:20:30.853Z,31.09
2022-08-14T15:23:12.162Z,31.22
2022-08-14T15:25:43.755Z,31.14
2022-08-14T15:28:20.903Z,30.24
2022-08-14T15:30:51.163Z,30.04
2022-08-14T15:34:13.496Z,30.83
2022-08-14T15:36:45.337Z,30.81
2022-08-14T15:39:13.463Z,30.19
2022-08-14T15:41:42.166Z,30.55
2022-08-14T15:44:24.679Z,31.03
2022-08-14T15:46:52.324Z,31.44
2022-08-14T15:49:19.642Z,31.33
2022-08-14T15:51:46.233Z,31.73
2022-08-14T15:54:13.014Z,31.55
2022-08-14T15:56:42.854Z,31.66
2022-08-14T15:59:13.113Z,31.75
2022-08-14T16:01:54.190Z,31.76
2022-08-14T16:04:22.684Z,31.71
2022-08-14T16:06:54.583Z,31.58
2022-08-14T16:09:21.837Z,31.27
2022-08-14T16:11:53.747Z,31.38
2022-08-14T16:14:21.810Z,31.43
2022-08-14T16:17:00.702Z,31.35
2022-08-14T16:19:43.967Z,31.52
2022-08-14T16:22:58.838Z,31.54
2022-08-14T16:25:01.982Z,31.13
2022-08-14T16:27:33.748Z,31.18
2022-08-14T16:30:10.797Z,31.21
2022-08-14T16:32:55.662Z,31.32
2022-08-14T16:35:42.942Z,31.39
2022-08-14T16:38:45.737Z,31.73
2022-08-14T16:41:25.848Z,31.98
2022-08-14T16:44:21.411Z,31.52
2022-08-14T16:46:57.110Z,31.70
2022-08-14T16:49:26.009Z,31.66
2022-08-14T16:52:26.181Z,31.67
2022-08-14T16:55:08.995Z,31.60
2022-08-14T16:57:51.827Z,32.08
2022-08-14T17:00:43.667Z,32.27
2022-08-14T17:03:12.801Z,31.98
2022-08-14T17:05:46.681Z,32.24
2022-08-14T17:08:42.836Z,32.12
2022-08-14T17:11:10.581Z,31.97
2022-08-14T17:13:58.267Z,31.96
2022-08-14T17:16:38.117Z,32.51
2022-08-14T17:19:13.779Z,32.56
2022-08-14T17:21:46.893Z,32.37
2022-08-14T17:24:57.088Z,32.60
2022-08-14T17:27:04.216Z,32.49
2022-08-14T17:29:56.382Z,32.67
2022-08-14T17:35:57.718Z,32.85
2022-08-14T17:38:33.597Z,33.09
2022-08-14T17:41:27.094Z,33.40
2022-08-14T17:44:45.628Z,33.66
2022-08-14T17:47:18.288Z,33.58
2022-08-14T17:49:52.061Z,33.91
2022-08-14T17:52:36.374Z,33.76
2022-08-14T17:56:02.534Z,34.19
2022-08-14T17:58:01.016Z,34.48
2022-08-14T18:00:28.587Z,34.99
2022-08-14T18:02:58.691Z,35.04
2022-08-14T18:06:07.447Z,35.32
2022-08-14T18:08:33.302Z,35.58
2022-08-14T18:11:02.566Z,35.81
2022-08-14T18:13:51.622Z,36.18
2022-08-14T18:16:20.364Z,36.33
2022-08-14T18:18:49.887Z,36.56
2022-08-14T18:21:40.467Z,36.79
2022-08-14T18:24:20.318Z,36.81
2022-08-14T18:27:01.920Z,36.92
2022-08-14T18:29:32.091Z,37.42
2022-08-14T18:32:00.064Z,37.34
2022-08-14T18:34:37.831Z,37.67
2022-08-14T18:37:20.992Z,37.81
2022-08-14T18:40:02.355Z,38.01
2022-08-14T18:42:33.087Z,37.98
2022-08-14T18:45:01.576Z,38.25
2022-08-14T18:47:32.680Z,38.51
2022-08-14T18:50:31.131Z,38.45
2022-08-14T18:53:10.745Z,38.90
2022-08-14T18:55:37.636Z,39.02
2022-08-14T18:58:43.954Z,38.91
2022-08-14T19:01:24.180Z,39.51
2022-08-14T19:03:51.996Z,39.65
2022-08-14T19:06:19.468Z,39.69
2022-08-14T19:08:50.147Z,39.85
2022-08-14T19:11:32.498Z,40.09
2022-08-14T19:14:04.727Z,40.32
2022-08-14T19:16:36.124Z,40.65
2022-08-14T19:19:08.068Z,40.42
2022-08-14T19:21:55.783Z,40.94
2022-08-14T19:24:44.267Z,41.38
2022-08-14T19:27:26.209Z,41.29
2022-08-14T19:30:19.714Z,41.84
2022-08-14T19:32:51.082Z,41.42
2022-08-14T19:35:24.746Z,41.73
2022-08-14T19:38:32.963Z,42.13
2022-08-14T19:41:01.568Z,42.35
2022-08-14T19:43:55.838Z,42.37
2022-08-14T19:46:37.949Z,42.51
2022-08-14T19:49:08.636Z,42.48
2022-08-14T19:51:48.819Z,43.07
2022-08-14T19:54:16.424Z,43.00
2022-08-14T19:56:45.700Z,43.24
2022-08-14T19:59:21.468Z,43.49
2022-08-14T20:01:52.444Z,43.66
2022-08-14T20:04:46.903Z,43.89
2022-08-14T20:08:09.132Z,44.78
2022-08-14T20:11:04.788Z,44.21
2022-08-14T20:13:32.256Z,44.21
2022-08-14T20:16:12.367Z,44.60
2022-08-14T20:18:51.644Z,44.85
2022-08-14T20:21:21.277Z,44.66
2022-08-14T20:23:49.631Z,44.51
2022-08-14T20:26:31.581Z,45.00
2022-08-14T20:29:04.434Z,45.00
2022-08-14T20:31:37.366Z,45.24
2022-08-14T20:34:18.824Z,45.71
2022-08-14T20:37:04.462Z,46.99
2022-08-14T20:39:34.648Z,45.45
2022-08-14T20:42:33.609Z,46.15
2022-08-14T20:45:24.307Z,45.90
2022-08-14T20:48:02.031Z,46.04
2022-08-14T20:50:36.578Z,45.51
2022-08-14T20:53:35.577Z,46.04
2022-08-14T20:56:28.369Z,45.51
2022-08-14T20:58:57.161Z,46.07
2022-08-14T21:01:23.909Z,46.22
2022-08-14T21:03:58.316Z,46.17
2022-08-14T21:07:22.864Z,46.48
2022-08-14T21:10:05.712Z,46.54
2022-08-14T21:12:34.644Z,46.59
2022-08-14T21:15:01.035Z,46.46
2022-08-14T21:17:30.001Z,46.47
2022-08-14T21:19:56.783Z,46.58
2022-08-14T21:22:23.603Z,46.91
2022-08-14T21:25:01.477Z,47.13
2022-08-14T21:27:37.106Z,47.41
2022-08-14T21:30:08.731Z,47.66
2022-08-14T21:32:50.134Z,47.98
2022-08-14T21:35:24.721Z,47.83
2022-08-14T21:37:53.511Z,47.74
2022-08-14T21:40:42.264Z,47.99
2022-08-14T21:43:17.977Z,48.71
2022-08-14T21:45:53.967Z,49.18
2022-08-14T21:48:29.798Z,49.33
2022-08-14T21:51:55.252Z,49.21
2022-08-14T21:53:58.596Z,49.08
2022-08-14T21:56:39.080Z,49.31
2022-08-14T21:59:17.583Z,49.39
2022-08-14T22:02:01.035Z,49.67
2022-08-14T22:04:40.764Z,49.75
2022-08-14T22:07:16.813Z,50.17
2022-08-14T22:09:45.460Z,50.14
2022-08-14T22:12:57.384Z,49.94
2022-08-14T22:15:11.544Z,51.81
2022-08-14T22:17:44.364Z,50.82
2022-08-14T22:20:16.302Z,51.12
2022-08-14T22:22:45.678Z,51.11
2022-08-14T22:25:17.404Z,50.78
2022-08-14T22:27:56.097Z,50.86
2022-08-14T22:30:25.383Z,51.52
2022-08-14T22:32:57.894Z,51.38
2022-08-14T22:35:26.706Z,51.58
2022-08-14T22:38:34.648Z,51.75
2022-08-14T22:41:07.600Z,52.24
2022-08-14T22:43:31.859Z,52.29
2022-08-14T22:46:02.300Z,52.67
2022-08-14T22:48:29.502Z,52.47
2022-08-14T22:50:56.290Z,52.93
2022-08-14T22:53:29.419Z,52.78
2022-08-14T22:55:56.722Z,53.13
2022-08-14T22:58:30.627Z,52.95
2022-08-14T23:01:01.026Z,52.89
2022-08-14T23:03:31.204Z,52.60
2022-08-14T23:06:01.999Z,52.81
2022-08-14T23:08:57.791Z,52.82
2022-08-14T23:11:15.934Z,53.01
2022-08-14T23:13:46.245Z,52.65
2022-08-14T23:16:20.375Z,52.78
2022-08-14T23:18:53.571Z,53.12
2022-08-14T23:21:22.046Z,53.16
2022-08-14T23:23:54.760Z,52.98
2022-08-14T23:26:48.484Z,52.51
2022-08-14T23:29:13.382Z,52.96
2022-08-14T23:31:43.568Z,53.27
2022-08-14T23:34:20.792Z,53.44
2022-08-14T23:36:56.192Z,53.63
2022-08-14T23:39:30.968Z,53.57
2022-08-14T23:42:08.684Z,54.03
2022-08-14T23:44:38.139Z,53.93
2022-08-14T23:47:12.241Z,53.86
2022-08-14T23:50:03.259Z,53.54
2022-08-14T23:52:56.012Z,53.59
2022-08-14T23:55:30.991Z,53.41
2022-08-14T23:57:59.344Z,53.47
